Time;durP1;ratioP1;P1;durP2;ratioP2;P2;SDS_P1;SDS_P2;PMS_P1;PMS_P2;Temp;Humidity;BMP_temperature;BMP_pressure;BME280_temperature;BME280_humidity;BME280_pressure;Samples;Min_cycle;Max_cycle;Signal;HPM_P1;HPM_P2
2022/09/15 00:02:01;;;;;;;5.28;3.65;;;;;;;15.49;85.70;100095.50;1673276;84;20989;-89
2022/09/15 00:04:28;;;;;;;6.50;4.42;;;;;;;15.49;85.83;100087.58;1674265;85;20898;-88
2022/09/15 00:06:55;;;;;;;4.55;4.12;;;;;;;15.48;86.01;100087.23;1675985;84;20888;-90
2022/09/15 00:09:21;;;;;;;5.97;4.53;;;;;;;15.50;86.18;100102.47;1675059;84;20902;-90
2022/09/15 00:11:48;;;;;;;7.35;4.85;;;;;;;15.50;86.39;100085.78;1673743;84;21243;-88
2022/09/15 00:14:14;;;;;;;5.35;3.58;;;;;;;15.49;86.54;100085.42;1673459;85;20922;-89
2022/09/15 00:16:43;;;;;;;7.55;3.80;;;;;;;15.50;86.67;100095.04;1673217;84;21013;-86
2022/09/15 00:19:10;;;;;;;4.87;4.03;;;;;;;15.48;86.82;100087.73;1673042;84;21404;-89
2022/09/15 00:21:39;;;;;;;5.20;4.72;;;;;;;15.49;86.99;100100.78;1673372;84;21411;-89
2022/09/15 00:24:06;;;;;;;4.30;3.33;;;;;;;15.49;87.10;100103.43;1673366;84;21732;-88
2022/09/15 00:26:33;;;;;;;13.93;4.28;;;;;;;15.51;87.22;100098.84;1673316;84;20906;-89
2022/09/15 00:29:02;;;;;;;6.40;3.77;;;;;;;15.53;87.30;100090.79;1673213;84;20993;-89
2022/09/15 00:31:30;;;;;;;4.92;3.52;;;;;;;15.55;87.43;100100.73;1673264;85;21486;-90
2022/09/15 00:34:01;;;;;;;3.15;2.85;;;;;;;15.56;87.50;100097.11;1673215;85;21440;-90
2022/09/15 00:36:27;;;;;;;3.90;3.60;;;;;;;15.59;87.58;100103.95;1673305;85;21217;-89
2022/09/15 00:38:54;;;;;;;4.25;3.20;;;;;;;15.61;87.67;100113.91;1673017;84;20922;-88
2022/09/15 00:41:22;;;;;;;7.17;3.50;;;;;;;15.61;87.71;100138.52;1673142;84;21517;-89
2022/09/15 00:44:00;;;;;;;4.55;4.00;;;;;;;15.65;87.87;100127.17;1673202;85;20921;-88
2022/09/15 00:46:38;;;;;;;6.37;3.40;;;;;;;15.65;88.13;100129.36;1673282;84;20910;-88
2022/09/15 00:49:24;;;;;;;4.42;3.50;;;;;;;15.65;88.46;100104.24;1673127;84;21853;-88
2022/09/15 00:53:50;;;;;;;5.28;3.70;;;;;;;15.71;88.94;100101.05;1854841;77;23241;-89
2022/09/15 00:56:16;;;;;;;5.22;3.83;;;;;;;15.67;89.06;100102.30;1822417;78;20927;-90
2022/09/15 00:58:56;;;;;;;9.48;4.87;;;;;;;15.68;89.60;100101.31;1822601;78;21884;-89
2022/09/15 01:01:25;;;;;;;7.03;3.55;;;;;;;15.68;89.60;100101.31;1822424;78;20868;-89
2022/09/15 01:03:51;;;;;;;3.92;3.52;;;;;;;15.69;89.29;100103.46;1822383;78;21349;-89
2022/09/15 01:06:32;;;;;;;4.37;3.87;;;;;;;15.68;89.83;100096.52;1822367;78;20875;-89
2022/09/15 01:09:10;;;;;;;6.65;4.42;;;;;;;15.69;89.99;100102.14;1822599;78;20974;-88
2022/09/15 01:11:37;;;;;;;4.65;3.80;;;;;;;15.69;90.22;100092.39;1822488;78;21088;-88
2022/09/15 01:14:03;;;;;;;3.72;3.42;;;;;;;15.70;90.42;100078.72;1822498;78;21349;-86
2022/09/15 01:16:45;;;;;;;5.60;3.77;;;;;;;15.71;90.60;100075.94;1822583;78;20891;-88
2022/09/15 01:19:36;;;;;;;4.62;3.90;;;;;;;15.70;90.77;100071.61;1821717;78;20856;-88
2022/09/15 01:22:47;;;;;;;4.12;3.77;;;;;;;15.71;90.81;100072.47;1822470;78;21041;-89
2022/09/15 01:25:48;;;;;;;7.33;4.15;;;;;;;15.70;90.94;100072.94;1821978;78;21216;-87
2022/09/15 01:28:35;;;;;;;7.25;5.22;;;;;;;15.69;91.07;100075.21;1825338;78;20829;-88
2022/09/15 01:31:28;;;;;;;7.28;4.65;;;;;;;15.68;91.30;100064.80;1812656;78;20923;-87
2022/09/15 01:34:06;;;;;;;8.18;4.70;;;;;;;15.68;91.45;100056.87;1823788;78;20876;-85
2022/09/15 01:36:44;;;;;;;8.15;4.08;;;;;;;15.68;91.62;100056.38;1823772;78;20844;-86
2022/09/15 01:39:15;;;;;;;5.72;4.10;;;;;;;15.68;91.80;100059.02;1822019;78;21243;-88
2022/09/15 01:41:51;;;;;;;6.33;4.17;;;;;;;15.69;91.97;100054.56;1822369;78;20864;-88
2022/09/15 01:44:29;;;;;;;5.50;3.77;;;;;;;15.69;92.14;100050.09;1822493;78;21373;-88
2022/09/15 01:46:59;;;;;;;4.78;3.70;;;;;;;15.71;92.69;100044.22;1822271;78;20987;-88
2022/09/15 01:49:29;;;;;;;6.35;3.98;;;;;;;15.71;92.69;100044.22;1822413;78;21349;-88
2022/09/15 01:51:55;;;;;;;3.67;3.37;;;;;;;15.71;92.55;100042.07;1822464;78;21296;-88
2022/09/15 01:54:29;;;;;;;3.92;3.52;;;;;;;15.72;92.67;100047.23;1825742;78;20923;-88
2022/09/15 01:56:56;;;;;;;4.15;3.47;;;;;;;15.73;92.75;100040.13;1825890;78;20923;-88
2022/09/15 01:59:22;;;;;;;5.83;4.00;;;;;;;15.73;92.84;100042.77;1825926;78;21404;-89
2022/09/15 02:02:00;;;;;;;4.95;3.90;;;;;;;15.73;92.92;100036.98;1825704;78;20959;-88
2022/09/15 02:04:40;;;;;;;4.97;3.35;;;;;;;15.74;92.96;100037.84;1744794;80;21249;-89
2022/09/15 02:07:22;;;;;;;5.67;5.17;;;;;;;15.76;93.00;100043.80;1783456;80;21470;-88
2022/09/15 02:10:27;;;;;;;9.95;7.45;;;;;;;15.78;93.01;100035.73;1783387;80;20961;-88
2022/09/15 02:13:15;;;;;;;4.50;4.17;;;;;;;15.77;92.98;100028.80;1783732;80;20894;-88
2022/09/15 02:15:47;;;;;;;4.70;3.77;;;;;;;15.79;93.08;100029.00;1783833;80;21048;-89
2022/09/15 02:18:13;;;;;;;3.70;3.40;;;;;;;15.79;93.03;100027.67;1783566;80;21151;-88
2022/09/15 02:20:48;;;;;;;5.37;3.47;;;;;;;15.79;92.98;100030.31;1783525;80;20973;-89
2022/09/15 02:23:27;;;;;;;5.53;4.08;;;;;;;15.80;93.01;100029.33;1783233;80;20933;-90
2022/09/15 02:25:59;;;;;;;4.25;3.85;;;;;;;15.78;93.00;100018.55;1783573;80;20898;-88
2022/09/15 02:28:28;;;;;;;4.85;4.00;;;;;;;15.79;93.01;100029.48;1783614;80;20881;-90
2022/09/15 02:30:55;;;;;;;7.62;3.85;;;;;;;15.76;93.00;100021.33;1783713;80;21138;-89
2022/09/15 02:33:23;;;;;;;4.45;4.00;;;;;;;15.76;93.01;100025.29;1783797;80;21004;-87
2022/09/15 02:35:51;;;;;;;4.67;4.20;;;;;;;15.74;93.04;100021.98;1783598;80;20918;-88
2022/09/15 02:38:17;;;;;;;5.62;4.85;;;;;;;15.75;93.09;100023.64;1783695;80;20945;-88
2022/09/15 02:40:45;;;;;;;6.20;5.47;;;;;;;15.75;93.13;100032.89;1783660;80;20866;-89
2022/09/15 02:43:15;;;;;;;7.53;4.35;;;;;;;15.75;93.20;100017.03;1783690;80;21308;-88
2022/09/15 02:45:41;;;;;;;4.75;3.72;;;;;;;15.77;93.24;100019.54;1783444;80;20838;-89
2022/09/15 02:48:08;;;;;;;4.58;3.87;;;;;;;15.79;93.27;100025.52;1785448;80;20941;-89
2022/09/15 02:50:36;;;;;;;6.40;3.98;;;;;;;15.79;93.23;100017.59;1786868;76;20906;-89
2022/09/15 02:53:03;;;;;;;4.08;3.62;;;;;;;15.80;93.22;100013.96;1787612;80;20869;-87
2022/09/15 02:55:29;;;;;;;4.30;3.77;;;;;;;15.81;93.21;100023.08;1792076;80;21246;-88
2022/09/15 02:57:56;;;;;;;3.83;3.50;;;;;;;15.82;93.16;100024.73;1791962;80;20917;-88
2022/09/15 03:00:23;;;;;;;5.92;3.77;;;;;;;15.84;93.07;100040.47;1792072;80;20960;-87
2022/09/15 03:02:52;;;;;;;5.65;3.75;;;;;;;15.85;93.04;100056.67;1793702;80;20893;-88
2022/09/15 03:05:21;;;;;;;3.25;2.83;;;;;;;15.86;92.95;100059.68;1791948;80;20968;-86
2022/09/15 03:07:48;;;;;;;4.00;3.70;;;;;;;15.87;92.90;100064.80;1791606;80;21143;-88
2022/09/15 03:10:15;;;;;;;4.80;4.15;;;;;;;15.89;92.96;100062.86;1791909;80;21442;-88
2022/09/15 03:12:46;;;;;;;4.70;4.17;;;;;;;15.90;92.92;100057.94;1791766;80;20838;-87
2022/09/15 03:15:14;;;;;;;4.62;3.52;;;;;;;15.92;92.93;100053.84;1791733;80;20893;-89
2022/09/15 03:17:42;;;;;;;5.60;3.40;;;;;;;15.94;92.95;100063.76;1791789;80;20953;-86
2022/09/15 03:20:10;;;;;;;3.45;3.15;;;;;;;15.95;92.91;100066.27;1791509;80;21143;-88
2022/09/15 03:22:37;;;;;;;8.03;3.62;;;;;;;15.95;92.82;100076.84;1791688;80;21584;-88
2022/09/15 03:25:05;;;;;;;4.22;3.83;;;;;;;15.97;92.90;100082.50;1791700;80;20921;-88
2022/09/15 03:27:33;;;;;;;5.10;3.92;;;;;;;15.97;93.03;100081.18;1791500;80;20901;-89
2022/09/15 03:30:02;;;;;;;7.80;3.60;;;;;;;15.98;93.09;100081.02;1791663;80;20901;-89
2022/09/15 03:32:28;;;;;;;7.67;3.67;;;;;;;16.01;93.18;100081.22;1791622;80;21131;-89
2022/09/15 03:34:55;;;;;;;4.33;3.92;;;;;;;16.01;93.16;100084.73;1791529;80;20905;-89
2022/09/15 03:37:21;;;;;;;4.95;4.03;;;;;;;16.01;93.10;100078.11;1791625;80;20940;-88
2022/09/15 03:39:48;;;;;;;7.42;4.70;;;;;;;16.02;92.85;100069.69;1791619;80;20906;-87
2022/09/15 03:42:14;;;;;;;7.33;4.20;;;;;;;16.05;92.92;100071.57;1791615;80;20889;-89
2022/09/15 03:44:40;;;;;;;6.97;4.10;;;;;;;16.05;92.92;100071.57;1791731;80;21165;-89
2022/09/15 03:47:07;;;;;;;4.78;3.75;;;;;;;16.06;92.86;100070.58;1791605;80;20901;-86
2022/09/15 03:49:34;;;;;;;7.40;4.97;;;;;;;16.08;92.59;100065.16;1791555;80;20905;-88
2022/09/15 03:52:01;;;;;;;4.50;3.80;;;;;;;16.08;92.59;100065.16;1791619;80;20933;-88
2022/09/15 03:54:27;;;;;;;7.90;3.85;;;;;;;16.07;92.44;100059.01;1783909;80;21063;-88
2022/09/15 03:56:54;;;;;;;5.03;4.62;;;;;;;16.08;92.30;100054.08;1821777;78;21144;-88
2022/09/15 03:59:20;;;;;;;5.65;4.78;;;;;;;16.07;91.94;100044.47;1821639;78;20923;-87
2022/09/15 04:01:47;;;;;;;4.17;3.80;;;;;;;16.10;91.70;100049.98;1821923;78;20955;-88
2022/09/15 04:04:14;;;;;;;6.10;3.40;;;;;;;16.12;92.17;100045.39;1821778;78;20888;-88
2022/09/15 04:06:41;;;;;;;4.40;3.90;;;;;;;16.12;92.17;100045.39;1821791;78;20907;-88
2022/09/15 04:09:07;;;;;;;4.03;3.62;;;;;;;16.13;91.84;100041.26;1823161;78;21065;-88
2022/09/15 04:11:36;;;;;;;5.20;4.20;;;;;;;16.16;91.81;100036.17;1824612;77;20951;-87
2022/09/15 04:14:03;;;;;;;4.92;4.53;;;;;;;16.21;91.89;100029.12;1823139;78;20871;-88
2022/09/15 04:16:29;;;;;;;5.33;4.40;;;;;;;16.21;91.89;100029.12;1822013;78;21353;-88
2022/09/15 04:18:56;;;;;;;6.97;3.95;;;;;;;16.30;91.23;100019.86;1822001;78;20907;-89
2022/09/15 04:21:24;;;;;;;5.70;4.85;;;;;;;16.30;91.23;100019.86;1821944;78;21159;-88
2022/09/15 04:23:52;;;;;;;7.03;4.33;;;;;;;16.45;90.74;100024.67;1822337;78;20908;-87
2022/09/15 04:26:31;;;;;;;5.15;3.85;;;;;;;16.45;90.74;100024.67;1821722;78;20951;-89
2022/09/15 04:29:00;;;;;;;5.05;4.45;;;;;;;16.49;90.22;100020.76;1821715;78;20916;-89
2022/09/15 04:31:27;;;;;;;5.58;4.53;;;;;;;16.54;89.75;100021.15;1821661;78;20975;-89
2022/09/15 04:33:54;;;;;;;6.90;4.05;;;;;;;16.54;89.30;100019.36;1821419;78;21282;-89
2022/09/15 04:36:23;;;;;;;4.53;4.12;;;;;;;16.54;89.05;100015.39;1821518;78;20931;-88
2022/09/15 04:38:49;;;;;;;7.03;4.22;;;;;;;16.53;88.73;100005.77;1822145;78;20848;-89
2022/09/15 04:41:16;;;;;;;4.92;4.05;;;;;;;16.53;88.54;100007.09;1822282;78;20978;-88
2022/09/15 04:43:43;;;;;;;5.85;4.28;;;;;;;16.52;88.50;100009.41;1823435;78;20907;-88
2022/09/15 04:46:11;;;;;;;8.13;4.28;;;;;;;16.52;88.54;100009.91;1823270;78;21133;-86
2022/09/15 04:48:38;;;;;;;6.08;4.00;;;;;;;16.62;89.02;100009.84;1821881;78;20962;-89
2022/09/15 04:51:07;;;;;;;4.75;3.67;;;;;;;16.86;89.39;100021.27;1821966;78;20916;-89
2022/09/15 04:53:34;;;;;;;3.98;3.60;;;;;;;16.86;89.39;100021.27;1823978;78;20895;-88
2022/09/15 04:56:10;;;;;;;4.05;3.55;;;;;;;17.33;89.71;100020.61;1798082;78;20926;-90
2022/09/15 04:58:40;;;;;;;3.15;2.85;;;;;;;17.95;88.16;100021.19;1825365;78;21248;-87
2022/09/15 05:01:13;;;;;;;3.77;3.35;;;;;;;18.65;85.97;100017.11;1825600;78;20864;-88
2022/09/15 05:03:40;;;;;;;6.87;4.57;;;;;;;19.29;83.13;100016.69;1825762;78;20958;-88
2022/09/15 05:06:09;;;;;;;4.95;3.55;;;;;;;19.69;80.14;100009.27;1825086;78;21013;-88
2022/09/15 05:08:35;;;;;;;5.47;3.35;;;;;;;19.83;78.01;100009.95;1825298;78;20915;-88
2022/09/15 05:11:05;;;;;;;7.62;3.30;;;;;;;19.88;76.89;100013.44;1825231;78;21310;-88
2022/09/15 05:13:33;;;;;;;3.45;2.80;;;;;;;20.00;76.35;100014.74;1825202;78;20844;-88
2022/09/15 05:16:12;;;;;;;5.85;3.67;;;;;;;20.16;75.71;100018.38;1825483;78;20919;-90
2022/09/15 05:18:44;;;;;;;4.75;2.52;;;;;;;20.23;74.40;100020.69;1825406;78;20931;-88
2022/09/15 05:21:13;;;;;;;3.47;2.70;;;;;;;20.21;73.90;100026.20;1825680;78;20912;-88
2022/09/15 05:23:40;;;;;;;6.22;3.45;;;;;;;20.26;73.90;100021.20;1825621;78;21825;-90
2022/09/15 05:26:11;;;;;;;2.75;2.52;;;;;;;20.59;74.06;100013.66;1825072;78;20959;-89
2022/09/15 05:28:39;;;;;;;5.12;2.67;;;;;;;21.18;73.17;100014.02;1826006;78;20939;-88
2022/09/15 05:31:09;;;;;;;2.83;2.40;;;;;;;21.77;71.05;100009.98;1828300;77;20896;-88
2022/09/15 05:33:35;;;;;;;3.83;2.80;;;;;;;22.07;68.79;100011.69;1828196;77;21388;-88
2022/09/15 05:36:02;;;;;;;3.05;2.20;;;;;;;22.14;67.39;100001.10;1827274;78;21220;-87
2022/09/15 05:38:30;;;;;;;6.62;2.85;;;;;;;22.11;67.15;100002.30;1828334;78;21178;-87
2022/09/15 05:41:07;;;;;;;5.92;4.08;;;;;;;22.05;67.12;100005.69;1828561;77;21006;-86
2022/09/15 05:43:38;;;;;;;3.37;2.35;;;;;;;21.94;66.80;100008.33;1826783;78;21318;-87
2022/09/15 05:46:06;;;;;;;6.12;3.50;;;;;;;21.82;67.00;100015.61;1825871;78;20915;-89
2022/09/15 05:48:33;;;;;;;3.80;3.47;;;;;;;21.70;67.10;100017.38;1826173;78;21781;-90
2022/09/15 05:50:59;;;;;;;6.80;3.30;;;;;;;21.56;67.37;100011.97;1826083;78;21005;-90
2022/09/15 05:53:26;;;;;;;4.33;2.47;;;;;;;21.46;67.76;100019.72;1825749;78;21029;-89
2022/09/15 05:55:58;;;;;;;3.30;2.33;;;;;;;21.38;68.07;100013.06;1825779;78;20930;-92
2022/09/15 05:58:25;;;;;;;3.65;2.62;;;;;;;21.33;68.19;100017.59;1825191;78;20867;-91
2022/09/15 06:00:52;;;;;;;3.05;2.10;;;;;;;21.31;68.61;100020.12;1825945;78;21133;-89
2022/09/15 06:03:22;;;;;;;3.37;2.30;;;;;;;21.42;68.77;100019.73;1826275;78;21475;-89
2022/09/15 06:05:51;;;;;;;4.22;3.83;;;;;;;21.64;68.48;100012.74;1826126;78;20931;-89
2022/09/15 06:08:18;;;;;;;5.15;2.60;;;;;;;21.92;67.75;100010.83;1825806;78;20978;-88
2022/09/15 06:10:46;;;;;;;4.28;3.90;;;;;;;22.25;67.40;100014.55;1825922;78;21468;-88
2022/09/15 06:13:13;;;;;;;2.02;1.92;;;;;;;22.49;66.18;100007.59;1825594;78;21124;-89
2022/09/15 06:15:40;;;;;;;5.47;2.50;;;;;;;22.60;65.50;99994.28;1826493;78;20907;-90
2022/09/15 06:18:06;;;;;;;4.67;2.90;;;;;;;22.69;65.20;99991.83;1825397;78;20884;-90
2022/09/15 06:20:34;;;;;;;4.65;3.10;;;;;;;22.85;65.04;99992.11;1825699;78;20901;-93
2022/09/15 06:23:00;;;;;;;5.12;2.90;;;;;;;23.05;64.51;99989.70;1798372;78;20931;-91
2022/09/15 06:25:27;;;;;;;5.65;2.62;;;;;;;23.16;63.72;99985.19;1825924;78;21479;-91
2022/09/15 06:27:54;;;;;;;4.75;2.30;;;;;;;23.21;63.32;99979.30;1826819;78;20895;-94
2022/09/15 06:30:22;;;;;;;5.45;2.65;;;;;;;23.23;62.95;99979.09;1826756;78;20958;-95
2022/09/15 06:32:53;;;;;;;5.53;2.00;;;;;;;23.28;63.17;99977.52;1827394;78;20895;-94
2022/09/15 06:35:22;;;;;;;4.78;1.92;;;;;;;23.41;63.10;99985.33;1826838;78;20921;-93
2022/09/15 06:37:49;;;;;;;3.15;1.82;;;;;;;23.52;63.01;99974.97;1827470;78;21179;-94
2022/09/15 06:40:21;;;;;;;3.25;1.50;;;;;;;23.67;62.72;99984.75;1828474;78;20872;-93
2022/09/15 06:43:13;;;;;;;4.10;2.30;;;;;;;23.73;62.24;99992.84;1775622;78;20825;-94
2022/09/15 06:45:46;;;;;;;5.00;2.02;;;;;;;23.76;62.09;99983.09;1706111;77;20914;-94
2022/09/15 06:48:18;;;;;;;4.20;2.05;;;;;;;23.82;61.94;99997.58;1601976;88;20963;-93
2022/09/15 06:50:49;;;;;;;5.33;2.33;;;;;;;23.89;61.94;99999.79;1614459;86;21098;-93
2022/09/15 06:53:16;;;;;;;7.90;2.10;;;;;;;23.99;61.86;100006.16;1624581;85;20968;-94
2022/09/15 06:55:43;;;;;;;4.30;2.58;;;;;;;24.05;61.11;100002.68;1681417;85;21218;-93
2022/09/15 06:58:12;;;;;;;9.13;5.97;;;;;;;24.04;60.96;100006.92;1680583;85;20929;-93
2022/09/15 07:00:39;;;;;;;5.37;4.33;;;;;;;24.00;61.26;100008.62;1680577;85;20880;-93
2022/09/15 07:03:10;;;;;;;11.40;8.48;;;;;;;23.98;61.59;100006.66;1681530;85;21493;-94
2022/09/15 07:05:38;;;;;;;5.12;3.45;;;;;;;23.95;61.45;100004.89;1664496;86;21064;-93
2022/09/15 07:08:04;;;;;;;4.28;2.85;;;;;;;23.92;61.51;100011.95;1664038;85;20878;-92
2022/09/15 07:10:31;;;;;;;6.08;4.60;;;;;;;23.85;61.56;100017.27;1666326;85;20984;-94
2022/09/15 07:13:00;;;;;;;7.62;3.92;;;;;;;23.82;61.90;100014.16;1692042;83;20985;-93
2022/09/15 07:15:26;;;;;;;3.33;3.02;;;;;;;23.78;61.94;100016.38;1674163;83;20912;-93
2022/09/15 07:17:54;;;;;;;5.15;4.45;;;;;;;23.77;62.25;100012.89;1692158;85;20933;-91
2022/09/15 07:20:21;;;;;;;6.40;2.37;;;;;;;23.84;62.44;100008.92;1695479;84;20987;-94
2022/09/15 07:22:51;;;;;;;4.08;2.33;;;;;;;24.02;62.56;100005.77;1728081;82;21459;-92
2022/09/15 07:25:18;;;;;;;7.20;2.62;;;;;;;24.34;61.96;100008.84;1703564;83;21051;-94
2022/09/15 07:27:45;;;;;;;4.22;2.58;;;;;;;24.66;61.05;99995.35;1728124;83;21270;-94
2022/09/15 07:30:12;;;;;;;7.72;2.65;;;;;;;24.99;60.31;99989.26;1703137;83;20926;-94
2022/09/15 07:32:39;;;;;;;2.87;2.02;;;;;;;25.30;59.83;99985.23;1727372;83;20962;-92
2022/09/15 07:35:06;;;;;;;2.90;1.62;;;;;;;25.65;58.94;99987.23;1702327;83;20879;-94
2022/09/15 07:37:35;;;;;;;3.17;1.65;;;;;;;25.99;58.06;99983.55;1726877;82;20938;-93
2022/09/15 07:40:02;;;;;;;7.33;1.95;;;;;;;26.23;56.16;99978.03;1702560;84;21240;-92
2022/09/15 07:42:31;;;;;;;3.33;1.45;;;;;;;26.36;55.68;99981.70;1701602;84;21500;-92
2022/09/15 07:45:00;;;;;;;6.47;2.42;;;;;;;26.50;55.36;99983.30;1702063;84;20977;-93
2022/09/15 07:47:26;;;;;;;2.45;1.80;;;;;;;26.61;54.63;99967.91;1680035;84;21034;-91
2022/09/15 07:49:54;;;;;;;5.83;2.02;;;;;;;26.63;53.89;99969.02;1703119;83;20891;-89
2022/09/15 07:52:20;;;;;;;7.75;2.72;;;;;;;26.57;54.12;99971.20;1703800;84;21452;-89
2022/09/15 07:54:47;;;;;;;5.10;3.55;;;;;;;26.55;54.55;99976.82;1698690;83;20946;-93
2022/09/15 07:57:18;;;;;;;8.28;6.67;;;;;;;26.47;53.95;99975.67;1696487;83;20903;-95
2022/09/15 07:59:47;;;;;;;2.62;2.02;;;;;;;26.32;54.21;99973.75;1696442;84;20990;-93
2022/09/15 08:02:18;;;;;;;4.67;3.33;;;;;;;26.17;54.88;99973.49;1696600;84;20927;-94
2022/09/15 08:04:45;;;;;;;6.28;2.58;;;;;;;26.14;55.21;99977.92;1673329;84;21075;-93
2022/09/15 08:07:15;;;;;;;4.90;2.87;;;;;;;26.22;55.90;99969.64;1692683;84;20853;-94
2022/09/15 08:09:43;;;;;;;5.95;2.35;;;;;;;26.50;55.36;99967.70;1672993;84;20899;-92
2022/09/15 08:12:11;;;;;;;3.00;2.10;;;;;;;26.72;54.64;99973.11;1695733;83;20915;-93
2022/09/15 08:14:41;;;;;;;3.45;2.27;;;;;;;26.87;54.47;99965.59;1692660;83;20943;-93
2022/09/15 08:17:08;;;;;;;4.70;2.05;;;;;;;26.98;53.84;99957.36;1724984;79;21103;-94
2022/09/15 08:19:38;;;;;;;2.58;2.30;;;;;;;27.01;53.32;99955.60;1784772;77;20844;-94
2022/09/15 08:22:05;;;;;;;5.08;3.12;;;;;;;27.00;53.43;99953.94;1749583;79;20988;-92
2022/09/15 08:24:32;;;;;;;8.43;2.65;;;;;;;27.00;52.92;99941.83;1786217;80;21464;-92
2022/09/15 08:26:59;;;;;;;2.20;1.95;;;;;;;26.96;52.04;99933.05;1786618;80;20994;-93
2022/09/15 08:29:25;;;;;;;2.35;1.87;;;;;;;26.91;51.84;99930.20;1786208;80;21082;-90
2022/09/15 08:31:52;;;;;;;3.52;1.37;;;;;;;26.85;51.74;99921.93;1785965;80;20888;-91
2022/09/15 08:34:19;;;;;;;12.58;6.25;;;;;;;26.89;51.69;99919.64;1786077;80;20888;-92
2022/09/15 08:36:46;;;;;;;15.30;13.65;;;;;;;26.95;51.91;99919.31;1786475;80;20935;-93
2022/09/15 08:39:12;;;;;;;2.72;2.10;;;;;;;26.96;50.56;99909.66;1786601;79;20935;-93
2022/09/15 08:41:43;;;;;;;19.67;17.85;;;;;;;26.93;50.67;99903.90;1785854;80;21210;-93
2022/09/15 08:44:35;;;;;;;7.78;5.55;;;;;;;26.95;51.29;99909.36;1785965;80;20892;-91
2022/09/15 08:47:23;;;;;;;4.97;2.45;;;;;;;27.04;50.41;99903.20;1786192;77;20943;-96
2022/09/15 08:50:09;;;;;;;3.72;1.47;;;;;;;26.98;48.60;99894.12;1787419;77;21042;-95
2022/09/15 08:52:45;;;;;;;13.60;4.40;;;;;;;27.03;48.65;99888.90;1765665;79;20913;-93
2022/09/15 08:55:20;;;;;;;1.67;1.15;;;;;;;27.19;48.97;99879.98;1750318;79;21296;-96
2022/09/15 08:57:47;;;;;;;3.62;1.42;;;;;;;27.39;47.74;99869.08;1750130;79;20849;-95
2022/09/15 09:00:15;;;;;;;2.02;0.82;;;;;;;27.51;47.22;99862.47;1787513;79;21235;-94
2022/09/15 09:03:20;;;;;;;5.17;1.72;;;;;;;27.63;46.88;99860.14;1787702;79;21405;-93
2022/09/15 09:06:02;;;;;;;1.57;0.90;;;;;;;27.68;46.03;99850.89;1755868;80;20900;-94
2022/09/15 09:08:48;;;;;;;3.22;1.20;;;;;;;27.63;45.72;99852.06;1787825;79;21122;-92
2022/09/15 09:11:23;;;;;;;1.65;0.90;;;;;;;27.56;45.94;99839.72;1750405;78;20920;-93
2022/09/15 09:14:26;;;;;;;2.37;1.47;;;;;;;27.44;45.97;99845.84;1741721;79;20920;-94
2022/09/15 09:17:20;;;;;;;3.27;1.60;;;;;;;27.35;46.31;99846.36;1720744;80;21050;-94
2022/09/15 09:20:04;;;;;;;2.92;1.30;;;;;;;27.17;46.37;99839.00;1787199;79;20876;-96
2022/09/15 09:22:35;;;;;;;2.87;1.17;;;;;;;26.83;44.95;99837.09;1750443;78;21250;-93
2022/09/15 09:25:02;;;;;;;2.98;0.90;;;;;;;26.47;45.05;99844.73;1720673;80;20984;-95
2022/09/15 09:27:33;;;;;;;3.40;1.20;;;;;;;26.24;45.41;99836.39;1787551;77;20994;-91
2022/09/15 09:30:13;;;;;;;16.27;14.43;;;;;;;26.05;46.45;99826.83;1750303;78;20961;-94
2022/09/15 09:33:21;;;;;;;8.35;6.22;;;;;;;25.88;47.20;99829.70;1745118;78;20886;-94
2022/09/15 09:35:51;;;;;;;20.77;18.57;;;;;;;25.75;48.42;99830.53;1787257;77;21119;-95
2022/09/15 09:38:33;;;;;;;11.12;7.22;;;;;;;25.59;49.13;99825.10;1787516;77;20908;-93
2022/09/15 09:41:03;;;;;;;3.83;2.45;;;;;;;25.52;50.26;99818.08;1766065;77;20920;-95
2022/09/15 09:43:30;;;;;;;5.17;2.65;;;;;;;25.44;50.64;99812.42;1787586;77;20897;-94
2022/09/15 09:45:58;;;;;;;2.50;2.30;;;;;;;25.37;51.22;99821.83;1750069;78;21208;-95
2022/09/15 09:48:25;;;;;;;6.30;3.98;;;;;;;25.27;51.21;99819.26;1787559;77;21108;-92
2022/09/15 09:50:53;;;;;;;5.25;2.95;;;;;;;25.17;52.16;99841.13;1787802;77;21010;-94
2022/09/15 09:53:31;;;;;;;4.83;1.42;;;;;;;24.90;52.03;99804.05;1750767;78;20932;-94
2022/09/15 09:56:23;;;;;;;4.45;2.30;;;;;;;24.93;51.88;99829.96;1748507;82;20869;-95
2022/09/15 09:58:51;;;;;;;5.53;2.92;;;;;;;24.78;52.59;99836.03;1786263;80;20912;-94
2022/09/15 10:01:23;;;;;;;6.95;2.37;;;;;;;24.55;53.69;99836.41;1786779;80;21123;-94
2022/09/15 10:04:13;;;;;;;16.25;2.77;;;;;;;24.31;55.06;99837.75;1727116;82;21370;-92
2022/09/15 10:06:40;;;;;;;4.08;2.65;;;;;;;24.11;56.30;99838.48;1778670;79;20845;-92
2022/09/15 10:09:17;;;;;;;6.08;2.60;;;;;;;23.91;57.60;99833.03;1786053;80;20920;-93
2022/09/15 10:11:58;;;;;;;5.35;2.37;;;;;;;23.74;58.46;99827.66;1785740;79;20873;-91
2022/09/15 10:14:40;;;;;;;6.53;3.75;;;;;;;23.57;59.43;99828.50;1785547;79;22080;-92
2022/09/15 10:17:12;;;;;;;10.40;3.12;;;;;;;23.43;59.82;99828.90;1748577;81;20881;-91
2022/09/15 10:19:57;;;;;;;3.60;3.15;;;;;;;23.27;60.77;99828.69;1739161;80;20870;-93
2022/09/15 10:22:38;;;;;;;4.10;2.58;;;;;;;23.14;61.59;99829.92;1737865;82;20949;-91
2022/09/15 10:25:13;;;;;;;5.60;2.50;;;;;;;22.99;61.87;99839.35;1708531;84;21010;-91
2022/09/15 10:27:40;;;;;;;4.78;2.12;;;;;;;22.85;61.68;99835.70;1769007;78;21927;-91
2022/09/15 10:30:19;;;;;;;5.72;2.95;;;;;;;22.72;61.89;99836.91;1777422;80;20892;-90
2022/09/15 10:32:47;;;;;;;6.30;4.08;;;;;;;22.61;62.06;99834.75;1777541;80;20881;-90
2022/09/15 10:35:19;;;;;;;7.47;3.45;;;;;;;22.48;62.74;99840.80;1775195;78;20900;-91
2022/09/15 10:38:11;;;;;;;5.58;2.62;;;;;;;22.39;63.32;99845.91;1748133;80;21007;-92
2022/09/15 10:40:49;;;;;;;8.53;3.65;;;;;;;22.30;63.90;99846.56;1721017;81;22344;-91
2022/09/15 10:43:42;;;;;;;10.90;6.17;;;;;;;22.22;64.56;99848.81;1745952;81;21004;-91
2022/09/15 10:46:26;;;;;;;7.05;3.33;;;;;;;22.15;65.36;99849.21;1745848;82;20900;-90
2022/09/15 10:49:30;;;;;;;8.53;2.72;;;;;;;22.07;66.35;99850.64;1746675;82;21429;-91
2022/09/15 10:52:30;;;;;;;10.88;4.92;;;;;;;21.97;67.09;99846.93;1746903;82;21436;-92
2022/09/15 10:55:17;;;;;;;6.80;3.40;;;;;;;21.88;68.07;99847.53;1746737;80;21316;-92
2022/09/15 10:58:08;;;;;;;3.87;2.60;;;;;;;21.77;69.06;99847.99;1747429;82;20889;-89
2022/09/15 11:00:52;;;;;;;3.35;3.05;;;;;;;21.69;70.00;99842.73;1747969;82;20916;-86
2022/09/15 11:03:28;;;;;;;;;;;;;;;21.64;70.75;99836.62;1694600;84;20956;-88
2022/09/15 11:06:07;;;;;;;8.58;3.87;;;;;;;21.59;71.56;99829.67;1691857;85;20103;-90
2022/09/15 11:08:48;;;;;;;5.65;4.10;;;;;;;21.53;72.12;99825.88;1656267;84;21334;-91
2022/09/15 11:11:20;;;;;;;8.18;3.58;;;;;;;21.49;72.79;99821.92;1627354;86;21056;-91
2022/09/15 11:14:23;;;;;;;7.12;4.17;;;;;;;21.45;73.34;99815.29;1627038;86;20936;-91
2022/09/15 11:17:24;;;;;;;5.10;3.12;;;;;;;21.40;73.76;99808.31;1654920;86;21075;-92
2022/09/15 11:20:24;;;;;;;10.98;4.75;;;;;;;21.34;74.30;99799.70;1667157;86;21237;-90
2022/09/15 11:23:23;;;;;;;12.18;5.05;;;;;;;21.28;74.87;99800.45;1668992;86;22317;-91
2022/09/15 11:25:57;;;;;;;17.07;5.10;;;;;;;21.22;75.37;99791.84;1668032;86;21093;-90
2022/09/15 11:28:47;;;;;;;8.00;3.87;;;;;;;21.15;75.81;99784.25;1670686;85;21217;-91
2022/09/15 11:31:33;;;;;;;13.70;6.05;;;;;;;21.09;76.23;99778.61;1602303;89;20967;-89
2022/09/15 11:34:27;;;;;;;6.10;4.67;;;;;;;21.02;76.63;99776.34;1602138;89;20931;-91
2022/09/15 11:37:03;;;;;;;5.58;3.92;;;;;;;20.97;77.08;99769.92;1601957;89;21215;-90
2022/09/15 11:39:41;;;;;;;5.95;4.40;;;;;;;20.91;77.63;99765.61;1614352;85;20938;-90
2022/09/15 11:42:19;;;;;;;6.03;4.90;;;;;;;20.86;78.06;99761.84;1602117;88;21069;-90
2022/09/15 11:44:47;;;;;;;8.03;4.90;;;;;;;20.81;78.59;99756.20;1656342;86;20966;-90
2022/09/15 11:47:34;;;;;;;6.78;4.72;;;;;;;20.78;79.03;99745.92;1656792;86;20991;-90
2022/09/15 11:50:22;;;;;;;10.18;6.17;;;;;;;20.70;79.60;99738.84;1656699;86;21245;-90
2022/09/15 11:53:08;;;;;;;9.38;5.97;;;;;;;20.62;80.14;99731.72;1631072;88;20960;-89
2022/09/15 11:55:50;;;;;;;9.10;5.92;;;;;;;20.60;80.70;99735.58;1631125;87;21089;-91
2022/09/15 11:58:37;;;;;;;9.30;5.65;;;;;;;20.55;81.09;99722.77;1630737;88;20932;-89